Júnior Lima

Recruteur en chef - Fluminense
9 Déc 2027
Jeudi
Processus

Personnalité

Adaptabilité (15) Ambition (13) Controverse (6) Loyauté (18) Pression (9) Professionnalisme (19) Sportivité (6) Tempérament (1)

Profil

Style d'entraînement Démocratique
Diplôme National A
Détermination 10
Gestion des joueurs 7
Motivation 7
Discipline 8
Satisfaction professionnelle
100%
Fatigue
0%
Rôle Recruteur en chef
Salaire 72.1K p/s
Contrat 14.03.2029

Performance

Comportement Bon
Efficacité de l'entraînement
60%
Développement des joueurs
55%
Prévention des blessures
25%
Mise en place tactique
55%

Événements récents

A participé à une réunion de recrutement maintenant
A recommandé une cible de transfert maintenant
A recommandé une cible de transfert maintenant
A présenté un dossier au conseil 7j
A présenté un dossier au conseil 7j
A évalué un joueur 7j
A présenté un dossier au conseil 7j
A présenté un dossier au conseil 7j

Suivi en cours

320
Joueur Club Statut Capacité Confiance Observé Dernière observation Dernier vote
Alexandro Bernabei Internacional Perdu 132 / 146 40% 5 02.12.2027 -
Marlon Grêmio Négociation 134 / 134 40% 10 02.12.2027 -
Lucas Sanabria LA Galaxy Actif 134 / 132 40% 4 02.12.2027 -
Naves Palmeiras Actif 132 / 120 40% 4 01.12.2027 -
Danilo Botafogo Actif 141 / 141 40% 8 01.12.2027 -
Mateo Cassierra Atlético Mineiro Actif 134 / 135 83% 1 01.12.2027 Approuver
Youssouf Fofana AC Milan Actif 163 / 164 40% 1 01.12.2027 -
Lewis Morgan SuperSport United Actif 139 / 111 40% 1 30.11.2027 -
Igor Jesus Newcastle United Actif 149 / 154 40% 1 30.11.2027 -
Ez Abde Girona Actif 157 / 158 40% 1 30.11.2027 -
José Hurtado Bragantino Actif 133 / 113 40% 7 29.11.2027 -
Juan Saborido Platense Actif 128 / 124 40% 4 28.11.2027 -
Juan Pablo De la Reta Kashiwa Reysol Actif 121 / 108 40% 1 28.11.2027 -
Igor Jesus Los Angeles Football Club Actif 124 / 115 40% 1 28.11.2027 -
Axel Frugone Defensor Sporting Actif 112 / 108 40% 1 28.11.2027 -
Marcos Antonio Sport Recife Actif 142 / 152 40% 9 26.11.2027 -
Brooke Norton-Cuffy Inter Miami CF Actif 135 / 139 40% 2 26.11.2027 -
Thiago Maia Internacional Actif 130 / 132 40% 1 26.11.2027 -
Renan Lodi Atlético Mineiro Actif 143 / 140 40% 7 24.11.2027 -
Marcus Holmgren Pedersen Valerenga Actif 131 / 143 40% 1 24.11.2027 -
Arthur Santos Actif 145 / 125 40% 8 23.11.2027 -
Mauro Arambarri River Plate Actif 150 / 164 40% 2 23.11.2027 -
Fabrício Bruno Cruzeiro Actif 139 / 136 40% 4 22.11.2027 -
Mateo Mendoza Godoy Cruz Actif 130 / 132 40% 7 22.11.2027 -
Lucas Piton Vasco da Gama Actif 140 / 128 40% 2 22.11.2027 -
William Cruzeiro Actif 134 / 145 40% 5 21.11.2027 -
Lyanco Atlético Mineiro Actif 128 / 119 40% 4 21.11.2027 -
Vitinho Botafogo Actif 137 / 137 40% 7 20.11.2027 -
Franco Ibarra Rosario Central Actif 131 / 138 40% 4 20.11.2027 -
Ángelo Preciado Atlético Mineiro Actif 130 / 122 40% 3 18.11.2027 -
Juninho Capixaba Bragantino Actif 131 / 128 40% 3 17.11.2027 -
Sergio Reguilón Inter Miami CF Actif 136 / 124 40% 9 16.11.2027 -
Jean Lucas Bahia Actif 141 / 141 40% 2 16.11.2027 -
Joel Poiso Penarol Actif 108 / 121 40% 1 16.11.2027 -
Lautaro Di Lollo Boca Juniors Actif 130 / 139 40% 1 16.11.2027 -
Breno Bidon Corinthians Actif 131 / 130 40% 2 15.11.2027 -
Tomás Porra Barracas Central Actif 119 / 129 40% 1 15.11.2027 -
Conor Bradley Bristol City Actif 163 / 142 40% 1 15.11.2027 -
Santiago Sosa Vasco da Gama Actif 136 / 121 40% 5 13.11.2027 -
Lucas Veríssimo Santos Actif 134 / 141 40% 4 13.11.2027 -
Gustavo Martins Grêmio Actif 131 / 136 40% 6 12.11.2027 -
Joaquín García Vélez Actif 128 / 135 40% 2 12.11.2027 -
Shaq Moore FC Dallas Actif 127 / 129 40% 3 12.11.2027 -
Matheus Bidu Corinthians Actif 126 / 126 40% 6 11.11.2027 -
Caio Alexandre Bahia Actif 135 / 131 40% 2 11.11.2027 -
Bruno Gomes Internacional Actif 130 / 144 40% 5 09.11.2027 -
Felipe Peña Biafore Lanús Actif 128 / 122 40% 4 09.11.2027 -
Santiago González Tigre Actif 129 / 140 40% 2 08.11.2027 -
Lucas Carrizo Newell's Old Boys Actif 132 / 130 40% 1 06.11.2027 -
Nicolás Romero Minnesota United FC Actif 133 / 134 40% 5 05.11.2027 -
Leonardo Borja La Equidad Actif 149 / 153 40% 7 03.11.2027 -
Paulo Henrique Vasco da Gama Actif 136 / 125 40% 3 03.11.2027 -
Loïc Williams Colorado Rapids Actif 130 / 136 40% 4 03.11.2027 -
Ayrton Costa Boca Juniors Actif 133 / 119 40% 2 02.11.2027 -
Elías Báez Atlanta United FC Actif 125 / 119 40% 1 02.11.2027 -
Mbekezeli Mbokazi Chicago Fire Actif 129 / 127 40% 1 02.11.2027 -
Gonzalo Montiel River Plate Actif 134 / 120 40% 2 01.11.2027 -
Matheuzinho Corinthians Actif 132 / 145 40% 2 29.10.2027 -
Santiago Ramos Mingo Bahia Actif 140 / 141 40% 2 22.10.2027 -
Teboho Mokoena Independiente Actif 136 / 138 40% 3 21.10.2027 -
Aaron Herrera Charlotte Football Club Actif 131 / 124 40% 2 21.10.2027 -
Bryan Ramírez FC Cincinnati Actif 129 / 125 40% 4 20.10.2027 -
Khellven Palmeiras Actif 138 / 143 40% 3 19.10.2027 -
Sondre Auklend Bodo/Glimt Actif 135 / 129 40% 1 12.10.2027 -
Nicolás Tripichio San Lorenzo Actif 126 / 116 40% 4 11.10.2027 -
Niklas Dorsch New York Red Bulls Actif 134 / 135 40% 1 11.10.2027 -
Mathías Villasanti Grêmio Actif 137 / 136 40% 2 09.10.2027 -
Marcel Hartel St. Louis CITY SC Actif 127 / 138 40% 1 07.10.2027 -
Enzo Díaz Sport Recife Actif 135 / 116 40% 3 05.10.2027 -
Gustavo Marques Bragantino Actif 127 / 124 40% 2 24.09.2027 -
Federico Pereira Estudiantes Actif 138 / 151 40% 1 24.09.2027 -
Dieguinho Ceará Actif 132 / 134 40% 1 24.09.2027 -
Facundo Mura Inter Miami CF Actif 129 / 129 40% 2 23.09.2027 -
Eduard Löwen San Jose Earthquakes Actif 134 / 134 40% 1 23.09.2027 -
Juan Ignacio Nardoni Grêmio Actif 136 / 146 40% 1 22.09.2027 -
Cauan Barros Vasco da Gama Actif 128 / 139 40% 2 18.09.2027 -
David Brekalo Orlando City Actif 127 / 136 40% 2 13.09.2027 -
Emil Breivik Molde Actif 136 / 120 40% 3 12.09.2027 -
Victor Castillo Ceará Actif 135 / 124 40% 1 06.09.2027 -
Damián Fernández Defensa y Justicia Actif 126 / 122 40% 1 04.09.2027 -
Charles Pickel Sharjah Actif 133 / 126 40% 1 30.08.2027 -
Mamadou Coulibaly Al Jazira Actif 127 / 134 40% 1 29.08.2027 -
Pedro Malheiro Al Wasl Actif 141 / 161 40% 1 29.08.2027 -
Miles Robinson FC Cincinnati Actif 135 / 137 40% 1 28.08.2027 -
Willyan Rocha Al Jazira Actif 130 / 135 40% 1 27.08.2027 -
Ismaël Bennacer Malmo FF Actif 156 / 127 40% 1 24.08.2027 -
Bruno Fuchs Palmeiras Actif 135 / 128 40% 1 24.08.2027 -
Keven Schlotterbeck FC Augsburg Actif 147 / 136 40% 1 23.08.2027 -
Robin Fellhauer FC Augsburg Actif 138 / 154 40% 1 23.08.2027 -
Renato Tapia Al Wasl Actif 136 / 137 40% 1 21.08.2027 -
Filippo Ranocchia Palermo Actif 135 / 118 40% 1 20.08.2027 -
Giuseppe Pezzella Cremonese Actif 131 / 138 40% 1 20.08.2027 -
Nadir Zortea Bologna Actif 137 / 144 40% 1 20.08.2027 -
Curtis Jones Inter Actif 157 / 160 40% 6 19.08.2027 -
Juan Miranda Bologna Actif 151 / 143 40% 1 19.08.2027 -
Romano Floriani Mussolini Avellino Actif 133 / 136 40% 1 19.08.2027 -
Manu Koné AS Roma Actif 169 / 172 40% 4 18.08.2027 -
Trevoh Chalobah Como Actif 158 / 149 40% 1 18.08.2027 -
Aleš Matějů Spezia Actif 129 / 119 40% 1 18.08.2027 -
Adrià Altimira Deportivo La Coruña Actif 140 / 133 40% 2 16.08.2027 -
Nicolò Rovella Lazio Actif 157 / 166 40% 2 16.08.2027 -
Nuno Tavares Lazio Actif 148 / 163 40% 1 16.08.2027 -
Fabio Gerli Modena Actif 132 / 115 40% 1 14.08.2027 -
Daniel Tonoli Modena Actif 132 / 117 40% 1 14.08.2027 -
Carlos Augusto Inter Actif 153 / 142 40% 1 13.08.2027 -
Federico Dimarco Inter Actif 170 / 165 40% 1 13.08.2027 -
Giorgio Scalvini Atalanta Actif 159 / 170 40% 1 13.08.2027 -
Matteo Pessina Monza Actif 136 / 149 40% 1 12.08.2027 -
Samuele Angori Pisa Actif 137 / 132 40% 1 12.08.2027 -
Ethan Galbraith Swansea City Actif 138 / 128 40% 11 08.08.2027 -
Tyler Adams Bournemouth Actif 160 / 155 40% 5 08.08.2027 -
Hector Ramirez Newcastle United Actif 152 / 165 40% 6 08.08.2027 -
Quinten Timber Crystal Palace Actif 150 / 160 40% 2 07.08.2027 -
Milan van Ewijk Mansfield Town Actif 142 / 128 40% 5 07.08.2027 -
Harry Clarke Preston Actif 138 / 138 40% 8 06.08.2027 -
Guille Rosas Gijón Actif 144 / 160 40% 6 06.08.2027 -
Azor Matusiwa Ipswich Town Actif 141 / 150 40% 4 04.08.2027 -
Florentino Luís Ipswich Town Actif 146 / 157 40% 9 03.08.2027 -
Hamza Choudhury Leicester City Actif 130 / 114 40% 2 03.08.2027 -
Kristoffer Lund Birmingham Actif 133 / 138 40% 3 02.08.2027 -
Mats Wieffer Brighton Actif 156 / 145 40% 7 02.08.2027 -
Callum Doyle Wrexham Actif 132 / 131 40% 7 31.07.2027 -
Saša Lukić Ipswich Town Actif 144 / 148 40% 7 31.07.2027 -
Ross McCrorie Bristol City Actif 137 / 137 40% 1 30.07.2027 -
Darlin Yongwa Norwich City Actif 123 / 121 40% 1 30.07.2027 -
Max Bird Birmingham Actif 133 / 143 40% 8 27.07.2027 -
Sven Botman Newcastle United Actif 167 / 160 40% 6 26.07.2027 -
Imrân Louza Watford Actif 138 / 146 40% 2 26.07.2027 -
Boubacar Kamara Aston Villa Actif 162 / 149 40% 5 25.07.2027 -
Adrien Truffert Bournemouth Actif 155 / 149 40% 5 25.07.2027 -
Nordi Mukiele Sunderland Actif 152 / 160 40% 5 25.07.2027 -
Adam Wharton Crystal Palace Actif 154 / 172 40% 4 24.07.2027 -
Dara O'Shea Ipswich Town Actif 145 / 139 40% 4 23.07.2027 -
Pedro Porro Tottenham Actif 149 / 138 40% 2 23.07.2027 -
Paik Seung-Ho Birmingham Actif 137 / 119 40% 1 23.07.2027 -
Noah Sadiki Sunderland Actif 153 / 157 40% 5 22.07.2027 -
Femi Seriki Sheffield United Actif 137 / 136 40% 1 22.07.2027 -
Derry Murkin Derby County Actif 133 / 146 40% 4 21.07.2027 -
Michael Baidoo Plymouth Argyle Actif 131 / 127 40% 2 21.07.2027 -
Igor Burnley Actif 137 / 149 40% 3 20.07.2027 -
Callum Brittain Middlesbrough Actif 136 / 125 40% 8 16.07.2027 -
Amadou Onana Aston Villa Actif 157 / 160 40% 8 15.07.2027 -
Soungoutou Magassa West Ham United Actif 140 / 127 40% 4 14.07.2027 -
Óscar Mingueza Crystal Palace Actif 159 / 144 40% 3 14.07.2027 -
Teden Mengi Luton Town Actif 129 / 123 40% 1 14.07.2027 -
Welington Southampton Actif 137 / 143 40% 11 11.07.2027 -
Toby Collyer West Bromwich Albion Actif 140 / 153 40% 4 11.07.2027 -
Ryan Sessegnon Fulham Actif 146 / 152 40% 3 10.07.2027 -
Leif Davis Ipswich Town Actif 138 / 153 40% 3 10.07.2027 -
Nicolas Madsen Queens Park Rangers Actif 138 / 116 40% 2 09.07.2027 -
Anel Ahmedhodžić Burnley Actif 141 / 150 40% 2 08.07.2027 -
Christos Mouzakitis Hull City Actif 133 / 131 40% 2 07.07.2027 -
Ben Sheaf Wrexham Actif 129 / 140 40% 1 07.07.2027 -
Kenny Tete Fulham Actif 140 / 137 40% 7 05.07.2027 -
Benjamin White Arsenal Actif 158 / 142 40% 6 05.07.2027 -
Alfie Doughty Millwall Actif 130 / 145 40% 1 05.07.2027 -
Jan Paul van Hecke Tottenham Actif 156 / 173 40% 4 01.07.2027 -
Aidan Morris Middlesbrough Actif 129 / 122 40% 1 01.07.2027 -
Shea Charles Southampton Actif 139 / 148 40% 6 30.06.2027 -
Luke McNally Bristol City Actif 131 / 135 40% 3 29.06.2027 -
Anton Stach Leeds United Actif 152 / 151 40% 2 22.06.2027 -
Nathan Collins Brentford Actif 150 / 148 40% 1 22.06.2027 -
Jake O'Brien Everton Actif 145 / 164 40% 1 13.06.2027 -
Kyle Walker-Peters West Ham United Actif 140 / 129 40% 3 08.06.2027 -
Micky van de Ven Tottenham Actif 163 / 165 40% 1 05.06.2027 -
Negueba Mirassol Actif 130 / 133 79% 1 03.06.2027 Approuver
Xaver Schlager Nottingham Forest Actif 151 / 159 40% 4 02.06.2027 -
Bitello SC Freiburg Négociation 135 / 135 68% 1 01.06.2027 Approuver
Ademir Bahia Actif 126 / 125 79% 1 01.06.2027 Approuver
Michele Cerofolini Bari Actif 136 / 128 40% 1 31.05.2027 -
Juanlu Bournemouth Actif 146 / 151 40% 1 30.05.2027 -
Conor Gallagher Tottenham Actif 153 / 159 40% 1 25.05.2027 -
Alessandro Buongiorno Sassuolo Actif 151 / 172 40% 1 19.05.2027 -
Adam Randell Bristol City Actif 124 / 120 40% 1 19.05.2027 -
Japhet Tanganga Sheffield United Actif 138 / 114 40% 1 09.05.2027 -
Pierre Kalulu Juventus Actif 158 / 164 40% 2 05.05.2027 -
Leon Goretzka Aston Villa Actif 160 / 144 40% 3 28.04.2027 -
Víctor Gómez Braga Actif 141 / 149 40% 12 24.04.2027 -
Dinis Pinto Moreirense Actif 134 / 119 40% 11 21.04.2027 -
Javi Sánchez Arouca Actif 133 / 136 40% 6 21.04.2027 -
João Palhinha Benfica Actif 147 / 157 40% 5 19.04.2027 -
Jordan Holsgrove Estoril Praia Actif 132 / 129 40% 8 19.04.2027 -
Luís Esteves Atlas Actif 130 / 125 40% 8 17.04.2027 -
Iván Fresneda Sporting CP Actif 139 / 140 40% 7 16.04.2027 -
Hwang In-Beom Porto Actif 151 / 125 40% 9 14.04.2027 -
Renato Sanches AVS Actif 126 / 122 40% 9 13.04.2027 -
Bright Arrey-Mbi Braga Actif 127 / 135 40% 4 12.04.2027 -
João Simões Sporting CP Actif 136 / 123 40% 6 12.04.2027 -
Toti Wolverhampton Actif 137 / 136 40% 1 12.04.2027 -
Rodrigo Pinheiro Famalicao Actif 134 / 147 40% 9 10.04.2027 -
Francisco Moura Lusitânia Lourosa Actif 134 / 127 40% 6 07.04.2027 -
Zeno Debast Sporting CP Actif 138 / 153 40% 1 07.04.2027 -
Mathias De Amorim Famalicao Actif 131 / 150 40% 1 01.04.2027 -
Sikou Niakaté Braga Actif 131 / 126 40% 5 31.03.2027 -
Jesús Angulo Tigres Actif 135 / 136 40% 4 31.03.2027 -
Alberto Costa Porto Actif 149 / 145 40% 7 26.03.2027 -
Kevin Álvarez Club America Actif 134 / 120 40% 2 16.03.2027 -
Alan Varela Porto Actif 138 / 161 40% 1 09.03.2027 -
Gerardo Arteaga Monterrey Actif 132 / 141 40% 3 07.03.2027 -
Joaquim Tigres Actif 133 / 139 40% 4 06.03.2027 -
Nahuel Tenaglia Tigres Actif 132 / 135 40% 1 28.02.2027 -
Fidel Ambríz Monterrey Actif 132 / 135 40% 1 28.02.2027 -
Gonçalo Inácio Sporting CP Actif 143 / 157 40% 7 27.02.2027 -
Gonzalo Piovi Cruz Azul Actif 130 / 142 40% 5 26.02.2027 -
Andrew Robertson Tottenham Actif 156 / 165 40% 1 26.02.2027 -
Ousmane Diomande Nottingham Forest Actif 150 / 151 40% 1 25.02.2027 -
John Stones Inter Actif 158 / 147 40% 1 25.02.2027 -
James Garner Everton Actif 154 / 160 40% 1 23.02.2027 -
Ryan Christie Bournemouth Actif 148 / 127 40% 2 22.02.2027 -
Jan Bednarek Porto Actif 146 / 159 40% 2 21.02.2027 -
Nicolás Fernández Mercau Shakhtar Actif 139 / 126 40% 2 21.02.2027 -
Richard Ledezma Guadalajara Actif 140 / 129 40% 1 21.02.2027 -
Jesús Orozco Chiquete Cruz Azul Actif 127 / 138 40% 2 19.02.2027 -
Kevin Vazquez Cruz Azul Actif 131 / 143 40% 1 17.02.2027 -
Adonis Frías Atlas Actif 127 / 127 40% 1 15.02.2027 -
Rubén Duarte Legia Actif 124 / 127 40% 1 12.02.2027 -
Ilay Camara Anderlecht Actif 132 / 128 40% 1 07.02.2027 -
Lukáš Červ Viktoria Plzen Actif 134 / 124 40% 1 06.02.2027 -
Eduardo Quaresma Sporting CP Actif 139 / 159 40% 1 02.02.2027 -
Sander Berge Fulham Actif 147 / 160 40% 1 29.01.2027 -
Pablo Rosario Porto Actif 146 / 120 40% 3 18.01.2027 -
Tomás Araújo Benfica Actif 150 / 161 40% 2 18.01.2027 -
Gustaf Lagerbielke Braga Actif 132 / 124 40% 1 04.01.2027 -
Lucas Romero Cruzeiro Actif 129 / 135 40% 1 04.01.2027 -
Reinildo Sunderland Actif 141 / 156 40% 2 02.01.2027 -
Christian Krasnodar Actif 135 / 131 40% 2 24.12.2026 -
Sabino Sport Recife Actif 126 / 119 40% 1 23.12.2026 -
Jonathan Calleri Sport Recife Actif 135 / 120 79% 1 06.12.2026 Approuver
Stanislav Agkatsev Sunderland Négociation 132 / 133 66% 1 01.12.2026 Approuver
Konstantin Tyukavin Inter Négociation 132 / 133 66% 1 01.12.2026 Approuver
Kostantis Tzolakis Hull City Actif 134 / 159 40% 9 30.11.2026 -
Léo Jardim Vasco da Gama Actif 141 / 122 40% 5 29.11.2026 -
Simone Scuffet Pisa Actif 126 / 140 40% 1 29.11.2026 -
Mads Hermansen West Ham United Actif 133 / 139 40% 6 28.11.2026 -
Jean America de Cali Actif 126 / 127 40% 5 28.11.2026 -
Barış Alper Yılmaz Galatasaray Actif 148 / 143 40% 2 27.11.2026 -
Facundo Cambeses Racing Club Actif 132 / 114 40% 10 27.11.2026 -
Ivan Toney Al-Ahli Actif 143 / 130 40% 2 27.11.2026 -
Jonathan Fischer FC Metz Actif 135 / 131 40% 2 27.11.2026 -
Yehvann Diouf OGC Nice Actif 138 / 137 40% 2 23.11.2026 -
Dean Henderson Crystal Palace Actif 152 / 151 40% 9 22.11.2026 -
Gabriel Jesus Barcelona Actif 163 / 154 40% 2 22.11.2026 -
Steven Bergwijn Al-Ittihad Actif 142 / 126 40% 1 22.11.2026 -
Mateo Pellegrino Fiorentina Actif 137 / 122 40% 1 22.11.2026 -
Fernando Tapia Club America Actif 129 / 128 40% 1 22.11.2026 -
Caoimhin Kelleher Brentford Actif 143 / 162 40% 10 21.11.2026 -
Erick Reyes Toluca Actif 142 / 148 40% 5 20.11.2026 -
Christian Walton Ipswich Town Actif 130 / 121 40% 6 18.11.2026 -
Soufiane Rahimi Guadalajara Actif 141 / 131 40% 2 18.11.2026 -
Ignacio de Arruabarrena Arouca Actif 121 / 135 40% 2 15.11.2026 -
Julián Quiñones Lokomotiv Moscow Actif 142 / 161 40% 3 14.11.2026 -
Anatolii Trubin Juventus Actif 152 / 163 40% 5 14.11.2026 -
Luka Jović AEK Actif 136 / 148 40% 1 14.11.2026 -
Joaquín Panichelli Le Havre AC Actif 150 / 154 40% 2 12.11.2026 -
Adnan Courtois KV Oostende Actif 133 / 139 40% 1 12.11.2026 -
Dmytro Riznyk Cruz Azul Actif 142 / 129 40% 1 12.11.2026 -
Bernardo Fontes Braga Actif 120 / 114 40% 1 12.11.2026 -
Arijanet Murić Sassuolo Actif 140 / 118 40% 3 10.11.2026 Observer
Cezary Miszta Rio Ave Actif 125 / 144 40% 3 08.11.2026 -
Matěj Kovář PSV Actif 138 / 150 40% 2 08.11.2026 -
Geny Sporting CP Actif 141 / 145 40% 2 06.11.2026 -
Carlos Miguel Palmeiras Actif 135 / 120 40% 3 06.11.2026 -
Heorhii Sudakov Benfica Actif 143 / 128 40% 1 05.11.2026 -
Oussama Idrissi Pachuca Actif 140 / 147 40% 1 05.11.2026 -
Robin Roefs Sunderland Actif 135 / 150 40% 5 04.11.2026 -
Tomás Marchiori Vélez Actif 130 / 123 40% 6 04.11.2026 -
Carlos Moreno Pachuca Actif 128 / 124 40% 7 02.11.2026 -
Mike Maignan AC Milan Actif 163 / 164 40% 2 01.11.2026 -
Tomoki Hayakawa Kashima Antlers Actif 144 / 147 40% 6 31.10.2026 -
Hugo Souza Corinthians Actif 139 / 121 40% 8 31.10.2026 -
Andreas Pereira Palmeiras Actif 147 / 136 40% 1 31.10.2026 -
Gabriel Batista Botafogo Actif 123 / 117 40% 4 30.10.2026 -
Ángel Correa River Plate Actif 146 / 155 40% 3 29.10.2026 -
Santiago Castro AS Roma Actif 152 / 166 40% 1 29.10.2026 -
Uğurcan Çakır Braga Actif 141 / 124 40% 1 26.10.2026 -
Keisuke Osako Sanfrecce Hiroshima Actif 135 / 154 40% 2 25.10.2026 -
Randal Kolo Muani Juventus Actif 149 / 150 40% 1 25.10.2026 -
Youssef En-Nesyri Al-Ittihad Actif 136 / 119 40% 1 25.10.2026 -
Romelu Castagne KV Oostende Actif 140 / 139 40% 1 25.10.2026 -
Dodi Lukébakio Benfica Actif 145 / 129 40% 2 24.10.2026 -
Esteban Lepaul Stade Rennais Actif 133 / 142 40% 1 24.10.2026 -
Zack Steffen Spartak Moscow Actif 127 / 132 40% 4 20.10.2026 -
Jacob Widell Zetterström Derby County Actif 134 / 132 40% 1 19.10.2026 -
Matt Freese New York City Actif 133 / 128 40% 3 17.10.2026 -
Alexander Nübel Besiktas Actif 141 / 123 40% 2 17.10.2026 -
Raúl Rangel Sporting CP Actif 129 / 128 40% 1 16.10.2026 -
Ryosuke Kojima Kashiwa Reysol Actif 132 / 109 40% 1 15.10.2026 -
Lazar Carević Famalicao Actif 124 / 126 40% 4 11.10.2026 -
Gonzalo Crettaz NEC Actif 126 / 110 40% 1 06.10.2026 -
Radek Vítek Middlesbrough Actif 128 / 117 40% 4 03.10.2026 -
Hany Mukhtar Spezia Actif 132 / 146 40% 1 02.10.2026 -
Rubén Blanco Yokohama F. Marinos Actif 128 / 108 40% 1 28.09.2026 -
Jindřich Staněk KAA Gent Actif 136 / 147 40% 1 27.09.2026 -
Predrag Rajković Racing Genk Actif 135 / 151 40% 1 23.09.2026 -
Justin Bijlow Genoa Actif 138 / 138 40% 2 22.09.2026 -
Alex Meret Napoli Actif 144 / 149 40% 2 17.09.2026 -
Borja Sainz Fiorentina Actif 145 / 127 40% 2 16.09.2026 -
Michael Cooper Sheffield United Actif 120 / 144 40% 1 16.09.2026 -
Fredrik Aursnes Benfica Actif 153 / 143 40% 1 16.09.2026 -
Nikola Vasilj Al-Diriyah Actif 143 / 156 40% 2 13.09.2026 -
Kepa Arrizabalaga Arsenal Actif 149 / 134 40% 3 13.09.2026 -
Musa Barrow Al-Khaleej Actif 143 / 123 40% 1 13.09.2026 -
Roberto Fernández Braga Actif 134 / 122 40% 1 13.09.2026 -
James Trafford Leeds United Actif 133 / 137 40% 3 08.09.2026 -
Donyell Malen AS Roma Actif 150 / 131 40% 1 08.09.2026 -
Alex Iwobi Fulham Actif 140 / 140 40% 1 04.09.2026 -
Dominik Greif Olympique Lyonnais Actif 132 / 151 40% 1 31.08.2026 -
Matvey Safonov Paris Saint-Germain Actif 157 / 156 40% 1 29.08.2026 -
Kasper Dolberg Ajax Actif 142 / 127 40% 1 27.08.2026 -
Kerem Aktürkoğlu Fenerbahce Actif 139 / 160 40% 1 20.08.2026 -
Giacomo Raspadori Atalanta Actif 142 / 134 40% 1 14.08.2026 -
Rodrigo Garro Corinthians Actif 136 / 130 40% 1 13.08.2026 -
Maduka Okoye Udinese Actif 133 / 133 40% 1 13.08.2026 -
Martin Jedlička Banik Ostrava Actif 122 / 143 40% 1 12.08.2026 -
Michael Zetterer Leeds United Actif 128 / 145 40% 2 07.08.2026 -
Antonio Sivera Alavés Actif 140 / 145 40% 2 05.08.2026 -
Iván Martín Racing Santander Actif 145 / 131 40% 1 05.08.2026 -
Gorka Guruzeta Athletic Bilbao Actif 146 / 134 40% 1 05.08.2026 -
Santi Comesaña Villarreal Actif 146 / 162 40% 1 05.08.2026 -
Augusto Batalla Rayo Vallecano Actif 150 / 135 40% 1 02.08.2026 -